Terminal Aerodrome Forecast
Issued by NWS Huntsville, AL

Current Version | Previous Version | Text Only | Print | Product List | Glossary On
Versions: 1 2 3 4 5 6 7 8 9 10 11 12 13 14 15 16 17 18 19 20 21 22 23 24
000
FTUS44 KHUN 230542
TAFMSL
TAF
KMSL 230542Z 2306/2406 13008KT P6SM BKN025 OVC250
     FM231000 11012G20KT P6SM BKN015 OVC025
     FM231300 11015G25KT P6SM VCSH BKN008 BKN015 OVC025
     FM231700 13015G25KT P6SM SHRA VCTS BKN008CB BKN015 OVC025
     FM232000 19012G20KT P6SM BKN015 OVC025=

USA.gov is the U.S. government's official web portal to all federal, state and local government web resources and services.